Terminal Aerodrome Forecast
Issued by NWS

Home | Current Version | Previous Version | Text Only | Print | Product List | Glossary On
Versions: 1 2 3 4 5 6 7 8 9 10 11 12 13 14
000
FTUS41 KBOX 242325
TAFHYA
TAF
KHYA 242325Z 2500/2524 20008KT P6SM FEW250
     FM250300 22004KT P6SM FEW200
     FM251500 21008KT P6SM SCT150
     FM251900 21012G19KT P6SM BKN150
     FM252200 21011G19KT P6SM VCSH BKN015=

USA.gov is the U.S. government's official web portal to all federal, state and local government web resources and services.